CDU weather

Camden Airport
New South Wales, Australia

Public forecast

Using degrees Celsius for public forecast. Weather courtesy of forecast.io.

Closest aviation weather report (METAR) to Camden Airport

Closest report is Sydney Kingsford Smith International Airport, 25.0 nm (46.4 km) ENE. Retrieved 2019/10/18 03:30 UTC (0 seconds ago):

YSSY 180330Z 06015KT CAVOK 22/04 Q1014 NOSIG

Closest aviation forecast (TAF) to Camden Airport

Closest forecast is Sydney Kingsford Smith International Airport, 25.0 nm (46.4 km) ENE. Retrieved 2019-10-18 00:39 UTC (3 hours ago):

TAF YSSY 172309Z 1800/1906 24012KT CAVOK FM180100 10008KT CAVOK FM180300 05015KT CAVOK FM181100 32008KT CAVOK FM190100 31015G25KT CAVOK FM190500 26020G30KT CAVOK